Decoded Metar for KRHI (RHINELANDER in WI, USA) (IATA:RHI) | Meteo·Mobile Aviation Weather
aviador You're here:

KRHI Decoded Metar

RHINELANDER in WI, USA
Report Time2020-02-22 20:53:00
UTC Time2020-02-22 21:18:26
Flight Rules vfr VFR
Wind230° at 11 Gusting to 17 kt
W.Decomp.*RWY 27: 8.8 kt HW 6.6 kt LCW
RWY 15: 1.3 kt HW 10.9 kt RCW
Visibility9999 m
Phenomena:N/A
Clouds:N/A
Expected CloudBase > 5,600 ft AGL from Temp-Dew spread
CeilingNone
Temp07°C (ISA -5)
Dew Point-7°C (37% RH)
AAT0.3°C
QNH1012 hPa
Density Alt1,102 ft
Elevation1,591 ft
Report Wrong Elevation
Raw Report
KRHI 222053Z AUTO 23011G17KT 10SM CLR 07/M07 A2989 RMK AO2 SLP141
T00671072 58019 $=

Extra information for KRHI:More info

Metar Taf Metar & Taf Last 4 Metars F.Rules Stats Wind Profile Meteogram Temp Stats Airport Information Weather charts Add Link Nearby VenuesMetar ALERT Operation Metar Decoded Social comments

AIRNAV info for KRHI